Okoboji, Iowa
Current Conditions -  °F | °C
As of 5:22 PM on Monday 22 Dec 2014 (Local Time) from KSPW Reporting Station
Light Rain Light Rain  
Wind Chill: 30°   Ceiling: 500
Heat Index: 38°   Visibility: 5mi
Dew Point: 36°   Wind: 12mph
Humidity: 93%   Direction: 110°ESE
Pressure: 29.46"   Gusts: NA
Location:  43.39°N, 95.15°W
Report Text: KSPW 222322Z AUTO 11010KT 5SM -RA BR OVC005 03/02 A2946 RMK AO2 P0001 T00330022 TSNO
Loading
Personal Weather Stations






























Interactive Weather Map New forecast layout! Learn more

10-Day Weather Forecast

Advertisements
Track Severe Weather on mobile